sensor_id;sensor_type;location;lat;lon;timestamp;P1;durP1;ratioP1;P2;durP2;ratioP2
5357;SDS011;2702;51.014;7.170;2023-11-19T00:01:02;0.73;;;0.73;;
5357;SDS011;2702;51.014;7.170;2023-11-19T00:03:31;0.70;;;0.60;;
5357;SDS011;2702;51.014;7.170;2023-11-19T00:05:59;0.80;;;0.80;;
5357;SDS011;2702;51.014;7.170;2023-11-19T00:08:26;2.07;;;1.03;;
5357;SDS011;2702;51.014;7.170;2023-11-19T00:10:52;0.80;;;0.73;;
5357;SDS011;2702;51.014;7.170;2023-11-19T00:13:19;0.73;;;0.73;;
5357;SDS011;2702;51.014;7.170;2023-11-19T00:15:45;0.90;;;0.60;;
5357;SDS011;2702;51.014;7.170;2023-11-19T00:18:13;0.70;;;0.67;;
5357;SDS011;2702;51.014;7.170;2023-11-19T00:20:40;0.70;;;0.60;;
5357;SDS011;2702;51.014;7.170;2023-11-19T00:23:07;2.03;;;1.10;;
5357;SDS011;2702;51.014;7.170;2023-11-19T00:25:34;0.93;;;0.83;;
5357;SDS011;2702;51.014;7.170;2023-11-19T00:28:00;0.80;;;0.80;;
5357;SDS011;2702;51.014;7.170;2023-11-19T00:30:27;0.60;;;0.60;;
5357;SDS011;2702;51.014;7.170;2023-11-19T00:32:54;0.60;;;0.60;;
5357;SDS011;2702;51.014;7.170;2023-11-19T00:35:20;0.97;;;0.50;;
5357;SDS011;2702;51.014;7.170;2023-11-19T00:37:46;0.60;;;0.50;;
5357;SDS011;2702;51.014;7.170;2023-11-19T00:40:13;0.60;;;0.53;;
5357;SDS011;2702;51.014;7.170;2023-11-19T00:42:42;0.90;;;0.90;;
5357;SDS011;2702;51.014;7.170;2023-11-19T00:45:09;0.63;;;0.60;;
5357;SDS011;2702;51.014;7.170;2023-11-19T00:47:36;0.60;;;0.60;;
5357;SDS011;2702;51.014;7.170;2023-11-19T00:50:02;0.83;;;0.70;;
5357;SDS011;2702;51.014;7.170;2023-11-19T00:52:30;2.80;;;0.80;;
5357;SDS011;2702;51.014;7.170;2023-11-19T00:54:57;0.50;;;0.50;;
5357;SDS011;2702;51.014;7.170;2023-11-19T00:57:23;0.53;;;0.50;;
5357;SDS011;2702;51.014;7.170;2023-11-19T00:59:50;0.60;;;0.60;;
5357;SDS011;2702;51.014;7.170;2023-11-19T01:02:16;2.83;;;0.70;;
5357;SDS011;2702;51.014;7.170;2023-11-19T01:04:43;0.70;;;0.67;;
5357;SDS011;2702;51.014;7.170;2023-11-19T01:07:09;0.60;;;0.60;;
5357;SDS011;2702;51.014;7.170;2023-11-19T01:09:41;1.03;;;0.60;;
5357;SDS011;2702;51.014;7.170;2023-11-19T01:12:08;0.50;;;0.50;;
5357;SDS011;2702;51.014;7.170;2023-11-19T01:14:38;0.50;;;0.50;;
5357;SDS011;2702;51.014;7.170;2023-11-19T01:17:05;0.50;;;0.50;;
5357;SDS011;2702;51.014;7.170;2023-11-19T01:19:32;0.93;;;0.50;;
5357;SDS011;2702;51.014;7.170;2023-11-19T01:21:58;0.73;;;0.70;;
5357;SDS011;2702;51.014;7.170;2023-11-19T01:24:25;0.83;;;0.53;;
5357;SDS011;2702;51.014;7.170;2023-11-19T01:26:54;1.27;;;0.93;;
5357;SDS011;2702;51.014;7.170;2023-11-19T01:29:20;1.07;;;0.80;;
5357;SDS011;2702;51.014;7.170;2023-11-19T01:31:47;1.10;;;0.90;;
5357;SDS011;2702;51.014;7.170;2023-11-19T01:34:19;0.97;;;0.83;;
5357;SDS011;2702;51.014;7.170;2023-11-19T01:36:46;0.70;;;0.70;;
5357;SDS011;2702;51.014;7.170;2023-11-19T01:39:14;1.00;;;0.70;;
5357;SDS011;2702;51.014;7.170;2023-11-19T01:41:45;0.90;;;0.90;;
5357;SDS011;2702;51.014;7.170;2023-11-19T01:44:12;1.33;;;1.00;;
5357;SDS011;2702;51.014;7.170;2023-11-19T01:46:42;2.20;;;1.03;;
5357;SDS011;2702;51.014;7.170;2023-11-19T01:49:14;1.50;;;1.40;;
5357;SDS011;2702;51.014;7.170;2023-11-19T01:51:43;1.87;;;1.77;;
5357;SDS011;2702;51.014;7.170;2023-11-19T01:54:11;2.90;;;1.77;;
5357;SDS011;2702;51.014;7.170;2023-11-19T01:56:38;2.10;;;2.00;;
5357;SDS011;2702;51.014;7.170;2023-11-19T01:59:07;2.43;;;2.30;;
5357;SDS011;2702;51.014;7.170;2023-11-19T02:01:35;2.20;;;2.10;;
5357;SDS011;2702;51.014;7.170;2023-11-19T02:04:06;2.70;;;2.50;;
5357;SDS011;2702;51.014;7.170;2023-11-19T02:06:34;2.23;;;2.13;;
5357;SDS011;2702;51.014;7.170;2023-11-19T02:09:06;2.33;;;2.00;;
5357;SDS011;2702;51.014;7.170;2023-11-19T02:11:34;2.10;;;2.00;;
5357;SDS011;2702;51.014;7.170;2023-11-19T02:14:00;2.37;;;2.00;;
5357;SDS011;2702;51.014;7.170;2023-11-19T02:16:28;2.97;;;2.80;;
5357;SDS011;2702;51.014;7.170;2023-11-19T02:18:55;3.10;;;2.90;;
5357;SDS011;2702;51.014;7.170;2023-11-19T02:21:22;2.83;;;2.70;;
5357;SDS011;2702;51.014;7.170;2023-11-19T02:23:48;2.10;;;2.00;;
5357;SDS011;2702;51.014;7.170;2023-11-19T02:26:22;2.40;;;2.30;;
5357;SDS011;2702;51.014;7.170;2023-11-19T02:28:50;3.00;;;2.50;;
5357;SDS011;2702;51.014;7.170;2023-11-19T02:31:16;1.87;;;1.77;;
5357;SDS011;2702;51.014;7.170;2023-11-19T02:33:44;2.00;;;1.80;;
5357;SDS011;2702;51.014;7.170;2023-11-19T02:36:11;1.73;;;1.60;;
5357;SDS011;2702;51.014;7.170;2023-11-19T02:38:37;1.60;;;1.50;;
5357;SDS011;2702;51.014;7.170;2023-11-19T02:41:04;2.80;;;1.60;;
5357;SDS011;2702;51.014;7.170;2023-11-19T02:43:33;1.60;;;1.23;;
5357;SDS011;2702;51.014;7.170;2023-11-19T02:46:03;1.57;;;1.47;;
5357;SDS011;2702;51.014;7.170;2023-11-19T02:48:34;2.00;;;1.80;;
5357;SDS011;2702;51.014;7.170;2023-11-19T02:51:01;2.00;;;1.40;;
5357;SDS011;2702;51.014;7.170;2023-11-19T02:53:35;3.33;;;1.63;;
5357;SDS011;2702;51.014;7.170;2023-11-19T02:56:05;1.67;;;1.57;;
5357;SDS011;2702;51.014;7.170;2023-11-19T02:58:46;1.63;;;1.50;;
5357;SDS011;2702;51.014;7.170;2023-11-19T03:01:20;3.07;;;1.50;;
5357;SDS011;2702;51.014;7.170;2023-11-19T03:04:00;2.10;;;1.40;;
5357;SDS011;2702;51.014;7.170;2023-11-19T03:06:27;3.10;;;1.43;;
5357;SDS011;2702;51.014;7.170;2023-11-19T03:08:54;5.37;;;2.13;;
5357;SDS011;2702;51.014;7.170;2023-11-19T03:11:21;3.73;;;2.47;;
5357;SDS011;2702;51.014;7.170;2023-11-19T03:13:48;6.23;;;2.17;;
5357;SDS011;2702;51.014;7.170;2023-11-19T03:16:14;5.90;;;2.00;;
5357;SDS011;2702;51.014;7.170;2023-11-19T03:18:40;2.83;;;1.87;;
5357;SDS011;2702;51.014;7.170;2023-11-19T03:21:07;6.40;;;2.20;;
5357;SDS011;2702;51.014;7.170;2023-11-19T03:23:34;4.10;;;1.80;;
5357;SDS011;2702;51.014;7.170;2023-11-19T03:26:01;3.83;;;2.00;;
5357;SDS011;2702;51.014;7.170;2023-11-19T03:28:31;3.73;;;2.63;;
5357;SDS011;2702;51.014;7.170;2023-11-19T03:30:58;4.37;;;1.70;;
5357;SDS011;2702;51.014;7.170;2023-11-19T03:33:24;2.63;;;1.73;;
5357;SDS011;2702;51.014;7.170;2023-11-19T03:35:54;5.30;;;1.97;;
5357;SDS011;2702;51.014;7.170;2023-11-19T03:38:22;3.30;;;1.83;;
5357;SDS011;2702;51.014;7.170;2023-11-19T03:40:50;4.50;;;2.23;;
5357;SDS011;2702;51.014;7.170;2023-11-19T03:43:17;5.03;;;2.30;;
5357;SDS011;2702;51.014;7.170;2023-11-19T03:45:45;2.47;;;1.80;;
5357;SDS011;2702;51.014;7.170;2023-11-19T03:48:12;4.30;;;2.20;;
5357;SDS011;2702;51.014;7.170;2023-11-19T03:50:38;4.77;;;2.20;;
5357;SDS011;2702;51.014;7.170;2023-11-19T03:53:06;7.53;;;3.00;;
5357;SDS011;2702;51.014;7.170;2023-11-19T03:55:32;4.27;;;2.13;;
5357;SDS011;2702;51.014;7.170;2023-11-19T03:57:59;10.40;;;2.37;;
5357;SDS011;2702;51.014;7.170;2023-11-19T04:00:25;8.30;;;2.50;;
5357;SDS011;2702;51.014;7.170;2023-11-19T04:02:53;7.30;;;2.37;;
5357;SDS011;2702;51.014;7.170;2023-11-19T04:05:20;4.30;;;1.77;;
5357;SDS011;2702;51.014;7.170;2023-11-19T04:07:46;6.23;;;2.73;;
5357;SDS011;2702;51.014;7.170;2023-11-19T04:10:12;7.20;;;2.53;;
5357;SDS011;2702;51.014;7.170;2023-11-19T04:12:42;13.50;;;3.10;;
5357;SDS011;2702;51.014;7.170;2023-11-19T04:15:09;6.40;;;2.30;;
5357;SDS011;2702;51.014;7.170;2023-11-19T04:17:36;3.20;;;2.20;;
5357;SDS011;2702;51.014;7.170;2023-11-19T04:20:03;7.23;;;3.40;;
5357;SDS011;2702;51.014;7.170;2023-11-19T04:22:30;9.00;;;3.07;;
5357;SDS011;2702;51.014;7.170;2023-11-19T04:24:56;5.60;;;2.80;;
5357;SDS011;2702;51.014;7.170;2023-11-19T04:27:22;3.87;;;2.40;;
5357;SDS011;2702;51.014;7.170;2023-11-19T04:29:49;9.23;;;3.20;;
5357;SDS011;2702;51.014;7.170;2023-11-19T04:32:16;8.00;;;3.40;;
5357;SDS011;2702;51.014;7.170;2023-11-19T04:34:42;8.07;;;2.80;;
5357;SDS011;2702;51.014;7.170;2023-11-19T04:37:09;8.00;;;3.10;;
5357;SDS011;2702;51.014;7.170;2023-11-19T04:39:35;9.37;;;3.23;;
5357;SDS011;2702;51.014;7.170;2023-11-19T04:42:03;7.60;;;3.30;;
5357;SDS011;2702;51.014;7.170;2023-11-19T04:44:30;4.83;;;3.30;;
5357;SDS011;2702;51.014;7.170;2023-11-19T04:46:56;6.80;;;3.23;;
5357;SDS011;2702;51.014;7.170;2023-11-19T04:49:24;8.67;;;3.10;;
5357;SDS011;2702;51.014;7.170;2023-11-19T04:51:52;5.77;;;3.27;;
5357;SDS011;2702;51.014;7.170;2023-11-19T04:54:19;5.80;;;3.27;;
5357;SDS011;2702;51.014;7.170;2023-11-19T04:56:45;4.83;;;2.33;;
5357;SDS011;2702;51.014;7.170;2023-11-19T04:59:13;9.23;;;3.60;;
5357;SDS011;2702;51.014;7.170;2023-11-19T05:01:39;11.83;;;3.60;;
5357;SDS011;2702;51.014;7.170;2023-11-19T05:04:07;6.90;;;3.00;;
5357;SDS011;2702;51.014;7.170;2023-11-19T05:06:33;14.03;;;3.63;;
5357;SDS011;2702;51.014;7.170;2023-11-19T05:09:01;8.73;;;2.90;;
5357;SDS011;2702;51.014;7.170;2023-11-19T05:11:30;10.83;;;4.27;;
5357;SDS011;2702;51.014;7.170;2023-11-19T05:13:57;7.60;;;3.20;;
5357;SDS011;2702;51.014;7.170;2023-11-19T05:16:24;11.20;;;3.87;;
5357;SDS011;2702;51.014;7.170;2023-11-19T05:18:51;16.73;;;3.80;;
5357;SDS011;2702;51.014;7.170;2023-11-19T05:21:18;11.60;;;3.50;;
5357;SDS011;2702;51.014;7.170;2023-11-19T05:23:44;12.40;;;3.27;;
5357;SDS011;2702;51.014;7.170;2023-11-19T05:26:16;13.83;;;3.67;;
5357;SDS011;2702;51.014;7.170;2023-11-19T05:28:47;12.53;;;3.50;;
5357;SDS011;2702;51.014;7.170;2023-11-19T05:31:14;9.87;;;3.87;;
5357;SDS011;2702;51.014;7.170;2023-11-19T05:33:41;14.17;;;3.40;;
5357;SDS011;2702;51.014;7.170;2023-11-19T05:36:08;12.50;;;3.77;;
5357;SDS011;2702;51.014;7.170;2023-11-19T05:38:36;8.33;;;3.20;;
5357;SDS011;2702;51.014;7.170;2023-11-19T05:41:03;8.00;;;2.80;;
5357;SDS011;2702;51.014;7.170;2023-11-19T05:43:30;13.20;;;3.30;;
5357;SDS011;2702;51.014;7.170;2023-11-19T05:45:57;9.90;;;3.43;;
5357;SDS011;2702;51.014;7.170;2023-11-19T05:48:25;9.10;;;3.33;;
5357;SDS011;2702;51.014;7.170;2023-11-19T05:50:55;6.90;;;3.40;;
5357;SDS011;2702;51.014;7.170;2023-11-19T05:53:21;12.20;;;3.47;;
5357;SDS011;2702;51.014;7.170;2023-11-19T05:55:47;5.27;;;2.80;;
5357;SDS011;2702;51.014;7.170;2023-11-19T05:58:23;9.63;;;3.87;;
5357;SDS011;2702;51.014;7.170;2023-11-19T06:00:55;11.60;;;3.20;;
5357;SDS011;2702;51.014;7.170;2023-11-19T06:03:22;8.37;;;3.40;;
5357;SDS011;2702;51.014;7.170;2023-11-19T06:05:49;13.13;;;3.43;;
5357;SDS011;2702;51.014;7.170;2023-11-19T06:08:16;8.57;;;3.03;;
5357;SDS011;2702;51.014;7.170;2023-11-19T06:10:42;7.63;;;3.03;;
5357;SDS011;2702;51.014;7.170;2023-11-19T06:13:14;14.03;;;3.60;;
5357;SDS011;2702;51.014;7.170;2023-11-19T06:15:44;12.83;;;3.10;;
5357;SDS011;2702;51.014;7.170;2023-11-19T06:18:10;13.10;;;4.00;;
5357;SDS011;2702;51.014;7.170;2023-11-19T06:20:40;13.13;;;3.47;;
5357;SDS011;2702;51.014;7.170;2023-11-19T06:23:06;12.53;;;3.70;;
5357;SDS011;2702;51.014;7.170;2023-11-19T06:25:33;10.13;;;3.13;;
5357;SDS011;2702;51.014;7.170;2023-11-19T06:28:01;9.13;;;3.57;;
5357;SDS011;2702;51.014;7.170;2023-11-19T06:30:27;13.77;;;3.47;;
5357;SDS011;2702;51.014;7.170;2023-11-19T06:32:55;17.23;;;4.00;;
5357;SDS011;2702;51.014;7.170;2023-11-19T06:35:21;12.93;;;3.77;;
5357;SDS011;2702;51.014;7.170;2023-11-19T06:37:48;13.67;;;4.40;;
5357;SDS011;2702;51.014;7.170;2023-11-19T06:40:14;16.30;;;3.83;;
5357;SDS011;2702;51.014;7.170;2023-11-19T06:42:42;13.93;;;4.10;;
5357;SDS011;2702;51.014;7.170;2023-11-19T06:45:08;11.80;;;3.93;;
5357;SDS011;2702;51.014;7.170;2023-11-19T06:47:35;14.43;;;4.13;;
5357;SDS011;2702;51.014;7.170;2023-11-19T06:50:01;18.20;;;4.10;;
5357;SDS011;2702;51.014;7.170;2023-11-19T06:52:31;12.77;;;3.20;;
5357;SDS011;2702;51.014;7.170;2023-11-19T06:54:57;10.63;;;3.73;;
5357;SDS011;2702;51.014;7.170;2023-11-19T06:57:24;12.80;;;3.57;;
5357;SDS011;2702;51.014;7.170;2023-11-19T06:59:50;11.50;;;4.13;;
5357;SDS011;2702;51.014;7.170;2023-11-19T07:02:17;12.03;;;5.10;;
5357;SDS011;2702;51.014;7.170;2023-11-19T07:04:43;20.70;;;5.07;;
5357;SDS011;2702;51.014;7.170;2023-11-19T07:07:09;15.50;;;3.77;;
5357;SDS011;2702;51.014;7.170;2023-11-19T07:09:36;13.37;;;4.00;;
5357;SDS011;2702;51.014;7.170;2023-11-19T07:12:02;14.73;;;3.50;;
5357;SDS011;2702;51.014;7.170;2023-11-19T07:14:30;10.10;;;3.47;;
5357;SDS011;2702;51.014;7.170;2023-11-19T07:16:56;12.97;;;4.10;;
5357;SDS011;2702;51.014;7.170;2023-11-19T07:19:22;12.20;;;4.50;;
5357;SDS011;2702;51.014;7.170;2023-11-19T07:21:49;11.03;;;3.60;;
5357;SDS011;2702;51.014;7.170;2023-11-19T07:24:15;14.27;;;3.97;;
5357;SDS011;2702;51.014;7.170;2023-11-19T07:26:45;12.67;;;3.40;;
5357;SDS011;2702;51.014;7.170;2023-11-19T07:29:15;15.30;;;4.00;;
5357;SDS011;2702;51.014;7.170;2023-11-19T07:31:42;12.93;;;3.70;;
5357;SDS011;2702;51.014;7.170;2023-11-19T07:34:10;9.00;;;3.40;;
5357;SDS011;2702;51.014;7.170;2023-11-19T07:36:37;16.77;;;3.80;;
5357;SDS011;2702;51.014;7.170;2023-11-19T07:39:04;8.50;;;3.17;;
5357;SDS011;2702;51.014;7.170;2023-11-19T07:41:31;10.33;;;3.40;;
5357;SDS011;2702;51.014;7.170;2023-11-19T07:43:57;11.40;;;4.10;;
5357;SDS011;2702;51.014;7.170;2023-11-19T07:46:24;12.70;;;3.90;;
5357;SDS011;2702;51.014;7.170;2023-11-19T07:48:51;16.17;;;3.70;;
5357;SDS011;2702;51.014;7.170;2023-11-19T07:51:19;13.70;;;3.63;;
5357;SDS011;2702;51.014;7.170;2023-11-19T07:53:45;12.10;;;3.47;;
5357;SDS011;2702;51.014;7.170;2023-11-19T07:56:11;7.63;;;3.10;;
5357;SDS011;2702;51.014;7.170;2023-11-19T07:58:38;12.50;;;3.70;;
5357;SDS011;2702;51.014;7.170;2023-11-19T08:01:04;13.67;;;3.50;;
5357;SDS011;2702;51.014;7.170;2023-11-19T08:03:31;9.90;;;3.40;;
5357;SDS011;2702;51.014;7.170;2023-11-19T08:06:00;13.10;;;4.30;;
5357;SDS011;2702;51.014;7.170;2023-11-19T08:08:27;13.87;;;3.90;;
5357;SDS011;2702;51.014;7.170;2023-11-19T08:10:56;11.80;;;4.13;;
5357;SDS011;2702;51.014;7.170;2023-11-19T08:13:25;9.87;;;3.23;;
5357;SDS011;2702;51.014;7.170;2023-11-19T08:15:52;13.40;;;3.80;;
5357;SDS011;2702;51.014;7.170;2023-11-19T08:18:19;14.17;;;4.93;;
5357;SDS011;2702;51.014;7.170;2023-11-19T08:20:45;9.13;;;4.13;;
5357;SDS011;2702;51.014;7.170;2023-11-19T08:23:14;17.13;;;4.33;;
5357;SDS011;2702;51.014;7.170;2023-11-19T08:25:41;16.47;;;4.17;;
5357;SDS011;2702;51.014;7.170;2023-11-19T08:28:07;14.43;;;4.40;;
5357;SDS011;2702;51.014;7.170;2023-11-19T08:30:34;12.07;;;3.40;;
5357;SDS011;2702;51.014;7.170;2023-11-19T08:33:00;15.43;;;4.00;;
5357;SDS011;2702;51.014;7.170;2023-11-19T08:35:29;12.67;;;3.93;;
5357;SDS011;2702;51.014;7.170;2023-11-19T08:37:55;14.20;;;3.50;;
5357;SDS011;2702;51.014;7.170;2023-11-19T08:40:23;11.80;;;3.83;;
5357;SDS011;2702;51.014;7.170;2023-11-19T08:42:49;14.67;;;4.00;;
5357;SDS011;2702;51.014;7.170;2023-11-19T08:45:21;15.03;;;4.13;;
5357;SDS011;2702;51.014;7.170;2023-11-19T08:47:48;11.97;;;3.93;;
5357;SDS011;2702;51.014;7.170;2023-11-19T08:50:14;12.40;;;3.33;;
5357;SDS011;2702;51.014;7.170;2023-11-19T08:52:41;14.10;;;4.10;;
5357;SDS011;2702;51.014;7.170;2023-11-19T08:55:07;15.13;;;4.30;;
5357;SDS011;2702;51.014;7.170;2023-11-19T08:57:35;10.20;;;3.70;;
5357;SDS011;2702;51.014;7.170;2023-11-19T09:00:02;12.50;;;4.70;;
5357;SDS011;2702;51.014;7.170;2023-11-19T09:02:34;14.10;;;3.83;;
5357;SDS011;2702;51.014;7.170;2023-11-19T09:05:03;11.73;;;3.63;;
5357;SDS011;2702;51.014;7.170;2023-11-19T09:07:31;13.53;;;3.57;;
5357;SDS011;2702;51.014;7.170;2023-11-19T09:09:57;11.17;;;3.57;;
5357;SDS011;2702;51.014;7.170;2023-11-19T09:12:23;10.23;;;3.40;;
5357;SDS011;2702;51.014;7.170;2023-11-19T09:14:49;12.33;;;3.50;;
5357;SDS011;2702;51.014;7.170;2023-11-19T09:17:16;10.03;;;3.50;;
5357;SDS011;2702;51.014;7.170;2023-11-19T09:19:44;12.13;;;3.57;;
5357;SDS011;2702;51.014;7.170;2023-11-19T09:22:10;13.63;;;3.50;;
5357;SDS011;2702;51.014;7.170;2023-11-19T09:24:37;13.40;;;3.60;;
5357;SDS011;2702;51.014;7.170;2023-11-19T09:27:03;12.67;;;3.83;;
5357;SDS011;2702;51.014;7.170;2023-11-19T09:29:33;17.20;;;4.40;;
5357;SDS011;2702;51.014;7.170;2023-11-19T09:32:00;11.60;;;4.07;;
5357;SDS011;2702;51.014;7.170;2023-11-19T09:34:26;13.13;;;3.57;;
5357;SDS011;2702;51.014;7.170;2023-11-19T09:36:53;11.60;;;4.00;;
5357;SDS011;2702;51.014;7.170;2023-11-19T09:39:20;14.57;;;3.73;;
5357;SDS011;2702;51.014;7.170;2023-11-19T09:41:47;12.50;;;3.90;;
5357;SDS011;2702;51.014;7.170;2023-11-19T09:44:13;13.47;;;3.90;;
5357;SDS011;2702;51.014;7.170;2023-11-19T09:46:43;12.77;;;3.43;;
5357;SDS011;2702;51.014;7.170;2023-11-19T09:49:11;17.77;;;4.17;;
5357;SDS011;2702;51.014;7.170;2023-11-19T09:51:39;11.63;;;3.47;;
5357;SDS011;2702;51.014;7.170;2023-11-19T09:54:05;10.23;;;3.40;;
5357;SDS011;2702;51.014;7.170;2023-11-19T09:56:33;12.00;;;3.57;;
5357;SDS011;2702;51.014;7.170;2023-11-19T09:59:03;12.73;;;4.10;;
5357;SDS011;2702;51.014;7.170;2023-11-19T10:01:29;12.23;;;3.90;;
5357;SDS011;2702;51.014;7.170;2023-11-19T10:03:58;11.33;;;3.93;;
5357;SDS011;2702;51.014;7.170;2023-11-19T10:06:25;18.33;;;4.20;;
5357;SDS011;2702;51.014;7.170;2023-11-19T10:08:52;11.43;;;3.93;;
5357;SDS011;2702;51.014;7.170;2023-11-19T10:11:18;1835.83;;;348.93;;
5357;SDS011;2702;51.014;7.170;2023-11-19T10:13:45;10.10;;;3.67;;
5357;SDS011;2702;51.014;7.170;2023-11-19T10:16:13;16.03;;;3.73;;
5357;SDS011;2702;51.014;7.170;2023-11-19T10:18:46;10.80;;;4.23;;
5357;SDS011;2702;51.014;7.170;2023-11-19T10:21:14;11.90;;;3.40;;
5357;SDS011;2702;51.014;7.170;2023-11-19T10:23:49;13.93;;;3.87;;
5357;SDS011;2702;51.014;7.170;2023-11-19T10:26:18;15.73;;;4.43;;
5357;SDS011;2702;51.014;7.170;2023-11-19T10:28:46;16.77;;;4.10;;
5357;SDS011;2702;51.014;7.170;2023-11-19T10:31:13;17.90;;;4.17;;
5357;SDS011;2702;51.014;7.170;2023-11-19T10:33:41;15.03;;;4.40;;
5357;SDS011;2702;51.014;7.170;2023-11-19T10:36:10;18.63;;;4.77;;
5357;SDS011;2702;51.014;7.170;2023-11-19T10:38:38;9.80;;;3.80;;
5357;SDS011;2702;51.014;7.170;2023-11-19T10:41:06;11.13;;;3.20;;
5357;SDS011;2702;51.014;7.170;2023-11-19T10:43:44;15.00;;;3.27;;
5357;SDS011;2702;51.014;7.170;2023-11-19T10:46:11;12.10;;;3.67;;
5357;SDS011;2702;51.014;7.170;2023-11-19T10:48:39;15.10;;;4.10;;
5357;SDS011;2702;51.014;7.170;2023-11-19T10:51:07;15.63;;;4.47;;
5357;SDS011;2702;51.014;7.170;2023-11-19T10:53:35;20.60;;;4.07;;
5357;SDS011;2702;51.014;7.170;2023-11-19T10:56:10;26.23;;;4.50;;
5357;SDS011;2702;51.014;7.170;2023-11-19T10:58:43;27.67;;;4.93;;
5357;SDS011;2702;51.014;7.170;2023-11-19T11:01:13;1999.90;;;999.90;;
5357;SDS011;2702;51.014;7.170;2023-11-19T11:03:44;1999.90;;;999.90;;
5357;SDS011;2702;51.014;7.170;2023-11-19T11:06:11;1999.90;;;999.90;;
5357;SDS011;2702;51.014;7.170;2023-11-19T11:08:39;1999.90;;;999.90;;
5357;SDS011;2702;51.014;7.170;2023-11-19T11:11:06;1472.73;;;710.83;;
5357;SDS011;2702;51.014;7.170;2023-11-19T11:13:33;12.43;;;4.23;;
5357;SDS011;2702;51.014;7.170;2023-11-19T11:16:03;11.77;;;3.47;;
5357;SDS011;2702;51.014;7.170;2023-11-19T11:18:33;19.37;;;4.10;;
5357;SDS011;2702;51.014;7.170;2023-11-19T11:21:09;15.07;;;4.13;;
5357;SDS011;2702;51.014;7.170;2023-11-19T11:37:39;10.93;;;2.93;;
5357;SDS011;2702;51.014;7.170;2023-11-19T11:40:17;10.50;;;3.30;;
5357;SDS011;2702;51.014;7.170;2023-11-19T11:42:44;15.47;;;3.47;;
5357;SDS011;2702;51.014;7.170;2023-11-19T11:45:11;10.00;;;3.20;;
5357;SDS011;2702;51.014;7.170;2023-11-19T11:50:09;7.70;;;2.70;;
5357;SDS011;2702;51.014;7.170;2023-11-19T11:57:51;10.77;;;3.63;;
5357;SDS011;2702;51.014;7.170;2023-11-19T12:00:21;15.10;;;3.70;;
5357;SDS011;2702;51.014;7.170;2023-11-19T12:02:54;13.47;;;3.63;;
5357;SDS011;2702;51.014;7.170;2023-11-19T12:05:27;14.30;;;6.50;;
5357;SDS011;2702;51.014;7.170;2023-11-19T12:08:04;12.40;;;4.00;;
5357;SDS011;2702;51.014;7.170;2023-11-19T12:10:36;11.73;;;2.83;;
5357;SDS011;2702;51.014;7.170;2023-11-19T12:13:10;6.23;;;2.57;;
5357;SDS011;2702;51.014;7.170;2023-11-19T12:16:11;10.70;;;3.57;;
5357;SDS011;2702;51.014;7.170;2023-11-19T12:18:31;6.97;;;2.83;;
5357;SDS011;2702;51.014;7.170;2023-11-19T12:20:58;9.90;;;3.23;;
5357;SDS011;2702;51.014;7.170;2023-11-19T12:23:29;16.40;;;3.90;;
5357;SDS011;2702;51.014;7.170;2023-11-19T12:25:56;8.73;;;2.60;;
5357;SDS011;2702;51.014;7.170;2023-11-19T12:28:24;11.23;;;3.57;;
5357;SDS011;2702;51.014;7.170;2023-11-19T12:30:53;7.73;;;2.97;;
5357;SDS011;2702;51.014;7.170;2023-11-19T12:33:35;8.60;;;2.87;;
5357;SDS011;2702;51.014;7.170;2023-11-19T12:36:02;13.37;;;3.30;;
5357;SDS011;2702;51.014;7.170;2023-11-19T12:38:31;9.40;;;3.10;;
5357;SDS011;2702;51.014;7.170;2023-11-19T12:41:07;8.60;;;3.00;;
5357;SDS011;2702;51.014;7.170;2023-11-19T12:43:39;13.30;;;3.07;;
5357;SDS011;2702;51.014;7.170;2023-11-19T12:46:21;9.57;;;2.93;;
5357;SDS011;2702;51.014;7.170;2023-11-19T12:48:49;11.83;;;3.50;;
5357;SDS011;2702;51.014;7.170;2023-11-19T12:51:17;9.87;;;3.37;;
5357;SDS011;2702;51.014;7.170;2023-11-19T12:53:50;10.20;;;3.53;;
5357;SDS011;2702;51.014;7.170;2023-11-19T12:56:23;12.20;;;3.30;;
5357;SDS011;2702;51.014;7.170;2023-11-19T12:58:50;10.23;;;3.30;;
5357;SDS011;2702;51.014;7.170;2023-11-19T13:01:17;9.70;;;3.13;;
5357;SDS011;2702;51.014;7.170;2023-11-19T13:03:46;11.03;;;3.10;;
5357;SDS011;2702;51.014;7.170;2023-11-19T13:06:14;9.60;;;3.10;;
5357;SDS011;2702;51.014;7.170;2023-11-19T13:08:45;8.97;;;2.73;;
5357;SDS011;2702;51.014;7.170;2023-11-19T13:11:31;7.77;;;2.67;;
5357;SDS011;2702;51.014;7.170;2023-11-19T13:13:59;10.37;;;2.53;;
5357;SDS011;2702;51.014;7.170;2023-11-19T13:16:31;9.63;;;2.80;;
5357;SDS011;2702;51.014;7.170;2023-11-19T13:18:58;7.17;;;2.40;;
5357;SDS011;2702;51.014;7.170;2023-11-19T13:21:26;9.00;;;3.80;;
5357;SDS011;2702;51.014;7.170;2023-11-19T13:23:52;13.20;;;3.37;;
5357;SDS011;2702;51.014;7.170;2023-11-19T13:26:19;13.20;;;3.20;;
5357;SDS011;2702;51.014;7.170;2023-11-19T13:28:45;7.80;;;2.37;;
5357;SDS011;2702;51.014;7.170;2023-11-19T13:31:12;5.90;;;2.43;;
5357;SDS011;2702;51.014;7.170;2023-11-19T13:33:38;6.43;;;2.67;;
5357;SDS011;2702;51.014;7.170;2023-11-19T13:36:06;10.03;;;2.57;;
5357;SDS011;2702;51.014;7.170;2023-11-19T13:38:36;5.37;;;2.30;;
5357;SDS011;2702;51.014;7.170;2023-11-19T13:41:06;8.13;;;3.33;;
5357;SDS011;2702;51.014;7.170;2023-11-19T13:43:35;11.27;;;3.10;;
5357;SDS011;2702;51.014;7.170;2023-11-19T13:46:02;13.23;;;3.70;;
5357;SDS011;2702;51.014;7.170;2023-11-19T13:48:29;12.83;;;3.30;;
5357;SDS011;2702;51.014;7.170;2023-11-19T13:50:56;11.10;;;3.13;;
5357;SDS011;2702;51.014;7.170;2023-11-19T13:53:22;12.10;;;3.73;;
5357;SDS011;2702;51.014;7.170;2023-11-19T13:55:52;11.40;;;3.13;;
5357;SDS011;2702;51.014;7.170;2023-11-19T13:58:19;9.70;;;2.93;;
5357;SDS011;2702;51.014;7.170;2023-11-19T14:00:45;8.40;;;2.93;;
5357;SDS011;2702;51.014;7.170;2023-11-19T14:03:11;15.40;;;3.10;;
5357;SDS011;2702;51.014;7.170;2023-11-19T14:05:38;9.80;;;3.53;;
5357;SDS011;2702;51.014;7.170;2023-11-19T14:08:07;13.23;;;3.57;;
5357;SDS011;2702;51.014;7.170;2023-11-19T14:10:39;12.77;;;3.33;;
5357;SDS011;2702;51.014;7.170;2023-11-19T14:13:06;11.33;;;3.10;;
5357;SDS011;2702;51.014;7.170;2023-11-19T14:15:33;11.67;;;3.20;;
5357;SDS011;2702;51.014;7.170;2023-11-19T14:18:00;10.23;;;3.20;;
5357;SDS011;2702;51.014;7.170;2023-11-19T14:20:29;14.10;;;3.50;;
5357;SDS011;2702;51.014;7.170;2023-11-19T14:22:55;11.40;;;2.97;;
5357;SDS011;2702;51.014;7.170;2023-11-19T14:25:21;14.23;;;3.40;;
5357;SDS011;2702;51.014;7.170;2023-11-19T14:27:49;15.17;;;3.70;;
5357;SDS011;2702;51.014;7.170;2023-11-19T14:30:16;6.47;;;2.70;;
5357;SDS011;2702;51.014;7.170;2023-11-19T14:32:42;8.50;;;2.70;;
5357;SDS011;2702;51.014;7.170;2023-11-19T14:35:11;9.57;;;2.70;;
5357;SDS011;2702;51.014;7.170;2023-11-19T14:37:38;9.63;;;3.40;;
5357;SDS011;2702;51.014;7.170;2023-11-19T14:40:05;10.27;;;3.63;;
5357;SDS011;2702;51.014;7.170;2023-11-19T14:42:35;13.67;;;3.87;;
5357;SDS011;2702;51.014;7.170;2023-11-19T14:45:02;10.70;;;3.37;;
5357;SDS011;2702;51.014;7.170;2023-11-19T14:47:29;12.83;;;3.27;;
5357;SDS011;2702;51.014;7.170;2023-11-19T14:49:56;12.53;;;3.77;;
5357;SDS011;2702;51.014;7.170;2023-11-19T14:52:23;9.10;;;3.50;;
5357;SDS011;2702;51.014;7.170;2023-11-19T14:54:49;10.33;;;3.70;;
5357;SDS011;2702;51.014;7.170;2023-11-19T14:57:17;11.23;;;4.20;;
5357;SDS011;2702;51.014;7.170;2023-11-19T14:59:43;10.40;;;3.40;;
5357;SDS011;2702;51.014;7.170;2023-11-19T15:02:10;8.70;;;3.03;;
5357;SDS011;2702;51.014;7.170;2023-11-19T15:04:37;8.90;;;3.67;;
5357;SDS011;2702;51.014;7.170;2023-11-19T15:07:04;9.30;;;3.20;;
5357;SDS011;2702;51.014;7.170;2023-11-19T15:09:30;9.20;;;2.83;;
5357;SDS011;2702;51.014;7.170;2023-11-19T15:11:58;8.40;;;2.70;;
5357;SDS011;2702;51.014;7.170;2023-11-19T15:14:25;7.67;;;2.63;;
5357;SDS011;2702;51.014;7.170;2023-11-19T15:16:51;9.47;;;3.03;;
5357;SDS011;2702;51.014;7.170;2023-11-19T15:19:18;10.03;;;3.20;;
5357;SDS011;2702;51.014;7.170;2023-11-19T15:21:46;8.70;;;2.50;;
5357;SDS011;2702;51.014;7.170;2023-11-19T15:24:13;10.10;;;3.20;;
5357;SDS011;2702;51.014;7.170;2023-11-19T15:26:40;9.83;;;3.00;;
5357;SDS011;2702;51.014;7.170;2023-11-19T15:29:06;13.00;;;3.10;;
5357;SDS011;2702;51.014;7.170;2023-11-19T15:31:33;9.43;;;3.50;;
5357;SDS011;2702;51.014;7.170;2023-11-19T15:34:02;7.23;;;2.70;;